This is the latest recevied weather packets stored in our database for station/object NUUKSIO. If no packets are shown the sender has not sent any weather packets the latest 1 day(s).
| Time | Temp. | Humidity | Pressure | Rain* | Wind** | Luminosity | Snow |
|---|---|---|---|---|---|---|---|
| 1777990037 | 10.56° C | 37% | 1004.9 hPa | 0 mm | 4.02 m/s, 256° | - | - |
| 1777988837 | 10.56° C | 44% | 1004.6 hPa | 0 mm | 3.58 m/s, 233° | - | - |
| 1777987637 | 11.67° C | 41% | 1004.7 hPa | 0 mm | 3.58 m/s, 246° | - | - |
| 1777986437 | 10° C | 43% | 1004.7 hPa | 0 mm | 4.47 m/s, 278° | - | - |
| 1777985237 | 11.67° C | 42% | 1004.4 hPa | 0 mm | 2.68 m/s, 238° | - | - |
| 1777984037 | 11.67° C | 40% | 1004.4 hPa | 0 mm | 4.47 m/s, 284° | - | - |
| 1777982836 | 12.22° C | 45% | 1004.2 hPa | 0 mm | 4.02 m/s, 247° | - | - |
| 1777981637 | 9.44° C | 51% | 1004.2 hPa | 0 mm | 5.36 m/s, 270° | - | - |
| 1777980437 | 12.22° C | 44% | 1003.8 hPa | 0 mm | 4.92 m/s, 277° | - | - |
| 1777979236 | 10° C | 51% | 1003.7 hPa | 0 mm | 5.36 m/s, 271° | - | - |
| 1777978036 | 12.22° C | 44% | 1003.3 hPa | 0 mm | 4.92 m/s, 277° | - | - |
| 1777976836 | 11.67° C | 50% | 1003.1 hPa | 0 mm | 5.81 m/s, 273° | - | - |
| 1777975636 | 11.67° C | 49% | 1002.6 hPa | 0 mm | 4.92 m/s, 257° | - | - |
| 1777974436 | 11.11° C | 52% | 1002.4 hPa | 0 mm | 5.36 m/s, 284° | - | - |
| 1777973236 | 11.67° C | 48% | 1002 hPa | 0 mm | 4.92 m/s, 265° | - | - |
| 1777972036 | 12.22° C | 56% | 1001.8 hPa | 0 mm | 5.81 m/s, 265° | - | - |
| 1777970837 | 12.78° C | 52% | 1001.4 hPa | 0 mm | 6.26 m/s, 267° | - | - |
| 1777969636 | 12.22° C | 56% | 1001.1 hPa | 0 mm | 5.36 m/s, 235° | - | - |
| 1777968436 | 11.67° C | 59% | 1001.1 hPa | 0 mm | 4.92 m/s, 234° | - | - |
| 1777967235 | 10° C | 64% | 1001 hPa | 0 mm | 5.81 m/s, 254° | - | - |
| 1777966036 | 11.11° C | 64% | 1000.8 hPa | 0 mm | 5.36 m/s, 229° | - | - |
| 1777964836 | 11.11° C | 66% | 1000.6 hPa | 0 mm | 4.02 m/s, 220° | - | - |
| 1777963636 | 10° C | 66% | 1000.6 hPa | 0 mm | 4.47 m/s, 240° | - | - |
* Rain latest hour (hover to see other rain measurements)
** Current wind speed in m/s (hover to see current wind gust speed)